Time;durP1;ratioP1;P1;durP2;ratioP2;P2;SDS_P1;SDS_P2;PMS_P1;PMS_P2;Temp;Humidity;BMP_temperature;BMP_pressure;BME280_temperature;BME280_humidity;BME280_pressure;Samples;Min_cycle;Max_cycle;Signal;HPM_P1;HPM_P2
2023/05/09 00:02:27;;;;;;;59.08;13.85;;;7.50;99.90;;;;;;4932708;29;20081;-77
2023/05/09 00:04:56;;;;;;;71.68;13.55;;;7.50;99.90;;;;;;4908127;29;20103;-78
2023/05/09 00:07:24;;;;;;;88.88;14.63;;;7.50;99.90;;;;;;4898522;29;20052;-74
2023/05/09 00:09:51;;;;;;;58.13;13.52;;;7.50;99.90;;;;;;4928540;29;20052;-77
2023/05/09 00:12:18;;;;;;;72.40;14.23;;;7.40;99.90;;;;;;4914656;29;20428;-77
2023/05/09 00:14:50;;;;;;;78.32;14.35;;;7.40;99.90;;;;;;4932218;29;20150;-78
2023/05/09 00:17:17;;;;;;;69.45;13.02;;;7.40;99.90;;;;;;4921396;29;20138;-78
2023/05/09 00:19:44;;;;;;;69.43;11.13;;;7.40;99.90;;;;;;4916763;29;20063;-78
2023/05/09 00:22:13;;;;;;;39.35;9.60;;;7.30;99.90;;;;;;4926740;29;20044;-78
2023/05/09 00:24:40;;;;;;;48.83;11.60;;;7.30;99.90;;;;;;4907703;29;20056;-77
2023/05/09 00:27:08;;;;;;;45.97;10.35;;;7.30;99.90;;;;;;4913108;29;20569;-77
2023/05/09 00:29:36;;;;;;;52.65;10.90;;;7.30;99.90;;;;;;4931393;29;20047;-78
2023/05/09 00:32:03;;;;;;;46.35;9.25;;;7.30;99.90;;;;;;4910573;29;20098;-78
2023/05/09 00:34:31;;;;;;;48.83;12.10;;;7.30;99.90;;;;;;4915763;29;20146;-71
2023/05/09 00:36:58;;;;;;;26.10;7.95;;;7.30;99.90;;;;;;4912541;29;20047;-71
2023/05/09 00:39:27;;;;;;;31.10;9.50;;;7.40;99.90;;;;;;4897873;29;20513;-71
2023/05/09 00:41:56;;;;;;;24.60;8.10;;;7.40;99.90;;;;;;4927010;29;20051;-72
2023/05/09 00:44:24;;;;;;;24.70;8.00;;;7.40;99.90;;;;;;4896528;29;20052;-71
2023/05/09 00:46:51;;;;;;;21.23;8.30;;;7.30;99.90;;;;;;4929117;29;20491;-72
2023/05/09 00:49:18;;;;;;;23.25;8.82;;;7.30;99.90;;;;;;4931211;29;20470;-71
2023/05/09 00:51:47;;;;;;;14.15;7.53;;;7.30;99.90;;;;;;4929870;29;20059;-72
2023/05/09 00:54:14;;;;;;;18.42;7.60;;;7.30;99.90;;;;;;4924455;29;20064;-72
2023/05/09 00:56:43;;;;;;;17.90;7.45;;;7.20;99.90;;;;;;4928910;29;20056;-72
2023/05/09 00:59:11;;;;;;;25.13;8.18;;;7.20;99.90;;;;;;4907492;29;20058;-71
2023/05/09 01:01:38;;;;;;;18.40;6.93;;;7.10;99.90;;;;;;4928876;29;20056;-72
2023/05/09 01:04:06;;;;;;;29.63;7.18;;;7.00;99.90;;;;;;4894896;29;20140;-71
2023/05/09 01:06:40;;;;;;;16.85;6.30;;;7.00;99.90;;;;;;4928553;29;20095;-71
2023/05/09 01:09:15;;;;;;;17.15;6.40;;;7.00;99.90;;;;;;4920833;29;20048;-71
2023/05/09 01:11:49;;;;;;;14.65;6.05;;;6.90;99.90;;;;;;4913291;29;20052;-71
2023/05/09 01:14:29;;;;;;;16.88;6.35;;;6.90;99.90;;;;;;4928497;29;20056;-71
2023/05/09 01:17:05;;;;;;;20.58;6.00;;;6.90;99.90;;;;;;4931251;29;20044;-71
2023/05/09 01:19:50;;;;;;;24.33;7.80;;;6.80;99.90;;;;;;4931006;29;20492;-71
2023/05/09 01:22:20;;;;;;;21.33;6.70;;;6.80;99.60;;;;;;4919255;29;20048;-70
2023/05/09 01:25:06;;;;;;;15.93;6.10;;;6.80;99.40;;;;;;4912987;29;20090;-71
2023/05/09 01:27:45;;;;;;;13.10;6.15;;;6.80;99.90;;;;;;4934052;29;20079;-71
2023/05/09 01:30:16;;;;;;;10.45;6.55;;;6.80;99.90;;;;;;4933367;29;20048;-71
2023/05/09 01:32:46;;;;;;;15.10;6.90;;;6.80;99.90;;;;;;4932827;29;20107;-71
2023/05/09 01:35:15;;;;;;;28.30;7.38;;;6.80;99.90;;;;;;4934759;29;20087;-71
2023/05/09 01:37:44;;;;;;;18.98;7.00;;;6.80;99.90;;;;;;4906402;29;20048;-71
2023/05/09 01:40:16;;;;;;;13.05;6.40;;;6.80;99.90;;;;;;4921620;29;20472;-71
2023/05/09 01:42:48;;;;;;;21.35;6.70;;;6.80;99.90;;;;;;4934046;29;20728;-71
2023/05/09 01:45:18;;;;;;;;;;;6.80;99.50;;;;;;4914877;29;20088;-70
2023/05/09 01:47:47;;;;;;;15.38;7.35;;;6.80;98.90;;;;;;4915891;29;20610;-70
2023/05/09 01:50:16;;;;;;;16.38;7.55;;;6.80;98.60;;;;;;4933179;29;20412;-73
2023/05/09 01:52:47;;;;;;;20.25;7.18;;;6.70;98.50;;;;;;4934040;29;20062;-72
2023/05/09 01:55:15;;;;;;;23.02;8.07;;;6.70;98.70;;;;;;4914212;29;20058;-72
2023/05/09 01:57:43;;;;;;;23.23;8.25;;;6.70;98.10;;;;;;4915744;29;20087;-71
2023/05/09 02:00:13;;;;;;;15.13;7.53;;;6.70;98.10;;;;;;4915920;29;20044;-72
2023/05/09 02:02:43;;;;;;;17.10;7.32;;;6.60;97.80;;;;;;4916538;29;20048;-71
2023/05/09 02:05:11;;;;;;;18.45;8.23;;;6.60;97.90;;;;;;4901265;29;20048;-72
2023/05/09 02:07:41;;;;;;;23.70;8.27;;;6.60;97.60;;;;;;4915100;29;20054;-72
2023/05/09 02:10:10;;;;;;;27.35;8.45;;;6.60;97.20;;;;;;4933202;29;20055;-71
2023/05/09 02:12:40;;;;;;;18.02;8.05;;;6.70;97.80;;;;;;4913558;29;20219;-72
2023/05/09 02:15:09;;;;;;;20.73;7.35;;;6.70;97.90;;;;;;4915253;29;20099;-71
2023/05/09 02:17:42;;;;;;;14.50;6.95;;;6.70;97.90;;;;;;4915916;29;20532;-72
2023/05/09 02:20:11;;;;;;;21.00;7.43;;;6.70;98.60;;;;;;4933414;29;20054;-71
2023/05/09 02:22:39;;;;;;;14.38;6.57;;;6.70;97.50;;;;;;4917170;29;20501;-71
2023/05/09 02:25:09;;;;;;;20.25;6.20;;;6.80;97.30;;;;;;4915574;29;20052;-71
2023/05/09 02:27:39;;;;;;;15.90;6.18;;;6.80;96.80;;;;;;4932471;29;20145;-71
2023/05/09 02:30:11;;;;;;;12.77;6.35;;;6.90;96.60;;;;;;4916301;29;20055;-71
2023/05/09 02:32:40;;;;;;;13.73;6.50;;;6.90;97.00;;;;;;4933618;29;20068;-71
2023/05/09 02:35:11;;;;;;;12.60;5.70;;;6.90;97.00;;;;;;4898136;29;20044;-71
2023/05/09 02:37:39;;;;;;;15.77;5.80;;;6.90;97.50;;;;;;4907077;29;20048;-71
2023/05/09 02:40:09;;;;;;;20.40;6.88;;;6.90;97.50;;;;;;4885113;29;20474;-71
2023/05/09 02:42:36;;;;;;;16.33;6.57;;;6.90;96.90;;;;;;4930938;29;20039;-70
2023/05/09 02:45:06;;;;;;;10.27;5.32;;;6.90;97.50;;;;;;4899425;29;20390;-70
2023/05/09 02:47:34;;;;;;;7.85;4.43;;;6.90;96.60;;;;;;4933732;29;20060;-71
2023/05/09 02:50:02;;;;;;;14.15;5.07;;;6.90;95.30;;;;;;4933259;29;20130;-70
2023/05/09 02:52:33;;;;;;;15.82;4.70;;;6.90;95.50;;;;;;4914770;29;20052;-71
2023/05/09 02:55:01;;;;;;;17.75;5.95;;;7.00;94.20;;;;;;4931744;29;20532;-71
2023/05/09 02:57:33;;;;;;;11.63;4.90;;;7.10;94.60;;;;;;4916068;29;20091;-71
2023/05/09 03:00:01;;;;;;;10.57;3.75;;;7.20;95.30;;;;;;4932939;29;20056;-70
2023/05/09 03:02:33;;;;;;;12.25;4.20;;;7.20;93.20;;;;;;4929535;29;20087;-70
2023/05/09 03:05:01;;;;;;;11.20;4.55;;;7.20;93.90;;;;;;4899592;29;20051;-71
2023/05/09 03:07:31;;;;;;;9.00;3.95;;;7.20;93.20;;;;;;4929340;29;20056;-72
2023/05/09 03:09:59;;;;;;;6.60;4.00;;;7.20;93.50;;;;;;4897423;29;20139;-71
2023/05/09 03:12:27;;;;;;;7.68;3.53;;;7.30;93.40;;;;;;4925670;29;20051;-72
2023/05/09 03:14:56;;;;;;;14.40;3.80;;;7.30;92.80;;;;;;4913567;29;20421;-70
2023/05/09 03:17:23;;;;;;;5.32;2.95;;;7.30;92.70;;;;;;4896714;29;20083;-71
2023/05/09 03:19:51;;;;;;;3.90;2.67;;;7.40;92.30;;;;;;4918990;29;20540;-71
2023/05/09 03:22:18;;;;;;;9.05;3.13;;;7.50;92.30;;;;;;4907866;29;20063;-72
2023/05/09 03:24:55;;;;;;;6.88;3.00;;;7.50;92.70;;;;;;4914286;29;20090;-72
2023/05/09 03:27:22;;;;;;;6.72;2.08;;;7.50;92.90;;;;;;4914492;29;20067;-71
2023/05/09 03:29:50;;;;;;;5.20;2.60;;;7.60;91.40;;;;;;4914212;29;20051;-72
2023/05/09 03:32:19;;;;;;;3.42;2.33;;;7.60;90.80;;;;;;4908496;29;20517;-73
2023/05/09 03:34:46;;;;;;;8.25;1.95;;;7.70;91.40;;;;;;4890868;29;20055;-73
2023/05/09 03:37:13;;;;;;;5.72;2.40;;;7.70;91.10;;;;;;4906556;29;20048;-73
2023/05/09 03:39:42;;;;;;;8.27;1.90;;;7.70;91.10;;;;;;4930810;29;20055;-72
2023/05/09 03:42:10;;;;;;;7.13;2.25;;;7.80;90.80;;;;;;4914280;29;20044;-72
2023/05/09 03:44:40;;;;;;;4.72;1.90;;;7.80;90.20;;;;;;4913451;29;20055;-72
2023/05/09 03:47:07;;;;;;;7.47;2.53;;;7.80;90.10;;;;;;4930563;29;20504;-72
2023/05/09 03:49:38;;;;;;;4.05;1.95;;;7.90;90.00;;;;;;4902311;29;20103;-72
2023/05/09 03:52:08;;;;;;;7.07;2.13;;;7.90;89.20;;;;;;4931038;29;20048;-71
2023/05/09 03:54:36;;;;;;;3.42;1.77;;;8.00;89.20;;;;;;4914441;29;20083;-71
2023/05/09 03:57:04;;;;;;;2.45;1.73;;;8.10;90.10;;;;;;4913959;29;20453;-72
2023/05/09 03:59:33;;;;;;;4.47;2.13;;;8.10;90.40;;;;;;4899000;29;20649;-74
2023/05/09 04:02:01;;;;;;;2.17;1.60;;;8.10;90.00;;;;;;4911619;29;20075;-72
2023/05/09 04:04:28;;;;;;;3.00;1.77;;;8.20;88.80;;;;;;4914239;29;20052;-72
2023/05/09 04:06:56;;;;;;;4.35;1.60;;;8.20;87.90;;;;;;4925878;29;20055;-71
2023/05/09 04:09:24;;;;;;;5.47;1.67;;;8.30;87.90;;;;;;4928769;29;20055;-71
2023/05/09 04:11:51;;;;;;;3.50;1.40;;;8.40;86.70;;;;;;4902387;29;20048;-72
2023/05/09 04:14:18;;;;;;;6.60;1.58;;;8.50;85.10;;;;;;4911488;29;20054;-72
2023/05/09 04:16:47;;;;;;;3.42;1.45;;;8.70;84.20;;;;;;4915565;29;20078;-71
2023/05/09 04:19:14;;;;;;;1.70;1.60;;;8.70;84.20;;;;;;4931933;29;20062;-72
2023/05/09 04:21:42;;;;;;;6.47;1.73;;;8.80;83.40;;;;;;4913530;29;20525;-71
2023/05/09 04:24:09;;;;;;;4.10;1.38;;;8.90;83.50;;;;;;4917998;29;20071;-72
2023/05/09 04:26:41;;;;;;;3.95;1.92;;;9.00;81.80;;;;;;4928632;29;20054;-72
2023/05/09 04:29:12;;;;;;;5.68;1.77;;;9.10;81.30;;;;;;4914447;29;20056;-72
2023/05/09 04:31:40;;;;;;;4.15;1.80;;;9.20;81.20;;;;;;4913475;29;20405;-72
2023/05/09 04:34:12;;;;;;;11.38;1.75;;;9.30;80.90;;;;;;4931122;29;20079;-72
2023/05/09 04:36:40;;;;;;;4.97;2.03;;;9.30;80.90;;;;;;4898829;29;20421;-72
2023/05/09 04:39:09;;;;;;;4.97;1.73;;;9.40;81.50;;;;;;4915516;29;20082;-71
2023/05/09 04:41:38;;;;;;;2.45;2.03;;;9.40;81.40;;;;;;4913165;29;20052;-72
2023/05/09 04:44:05;;;;;;;4.32;1.90;;;9.50;81.50;;;;;;4911157;29;20051;-72
2023/05/09 04:46:32;;;;;;;3.83;1.80;;;9.60;80.80;;;;;;4899645;29;20051;-71
2023/05/09 04:49:00;;;;;;;3.72;1.80;;;9.60;81.10;;;;;;4931493;29;20052;-70
2023/05/09 04:51:28;;;;;;;3.97;2.35;;;9.70;80.00;;;;;;4932050;29;20054;-72
2023/05/09 04:53:56;;;;;;;4.45;1.90;;;9.70;79.90;;;;;;4915006;29;20509;-71
2023/05/09 04:56:29;;;;;;;6.45;1.90;;;9.70;80.10;;;;;;4915483;29;20055;-72
2023/05/09 04:58:57;;;;;;;2.50;1.95;;;9.80;80.60;;;;;;4930794;29;20040;-70
2023/05/09 05:01:25;;;;;;;3.58;2.03;;;9.90;81.00;;;;;;4927453;29;20088;-71
2023/05/09 05:03:52;;;;;;;4.15;1.63;;;9.90;81.70;;;;;;4899491;29;20155;-72
2023/05/09 05:06:20;;;;;;;4.82;1.60;;;10.00;81.40;;;;;;4919148;29;20564;-71
2023/05/09 05:08:48;;;;;;;4.57;1.90;;;10.10;81.50;;;;;;4918204;29;20051;-71
2023/05/09 05:11:16;;;;;;;2.63;1.48;;;10.20;82.00;;;;;;4918714;29;20106;-71
2023/05/09 05:13:45;;;;;;;3.25;1.33;;;10.30;81.30;;;;;;4902669;29;20591;-72
2023/05/09 05:16:12;;;;;;;4.15;1.27;;;10.30;80.80;;;;;;4935092;29;20043;-72
2023/05/09 05:18:40;;;;;;;4.07;1.67;;;10.40;80.30;;;;;;4933087;29;20118;-72
2023/05/09 05:21:08;;;;;;;2.17;1.15;;;10.50;79.70;;;;;;4918723;29;20063;-71
2023/05/09 05:23:35;;;;;;;1.63;1.30;;;10.90;79.50;;;;;;4919449;29;20527;-72
2023/05/09 05:26:04;;;;;;;2.50;1.75;;;11.50;78.30;;;;;;4903188;29;20050;-73
2023/05/09 05:28:34;;;;;;;1.73;1.20;;;12.00;76.20;;;;;;4935173;29;20138;-73
2023/05/09 05:31:01;;;;;;;7.43;1.70;;;12.40;74.20;;;;;;4913882;29;20147;-71
2023/05/09 05:33:28;;;;;;;4.10;1.92;;;12.80;70.90;;;;;;4903010;29;20051;-73
2023/05/09 05:35:56;;;;;;;3.85;1.63;;;13.10;70.90;;;;;;4895781;29;20047;-73
2023/05/09 05:38:24;;;;;;;4.45;1.50;;;13.50;69.20;;;;;;4935942;29;20126;-74
2023/05/09 05:40:55;;;;;;;4.60;1.50;;;14.00;67.90;;;;;;4909326;29;20588;-73
2023/05/09 05:43:26;;;;;;;2.17;1.10;;;14.50;65.80;;;;;;4932876;29;20521;-74
2023/05/09 05:45:54;;;;;;;3.17;1.88;;;15.00;62.10;;;;;;4900137;29;20157;-73
2023/05/09 05:48:23;;;;;;;4.78;1.38;;;15.40;59.30;;;;;;4929936;29;20067;-73
2023/05/09 05:50:57;;;;;;;3.75;1.60;;;15.70;58.70;;;;;;4937075;29;20055;-71
2023/05/09 05:53:28;;;;;;;2.40;1.77;;;16.10;57.90;;;;;;4907594;29;20066;-72
2023/05/09 05:55:56;;;;;;;2.13;1.25;;;16.50;56.00;;;;;;4904685;29;20420;-72
2023/05/09 05:58:25;;;;;;;2.08;1.65;;;16.90;55.40;;;;;;4913908;29;20094;-77
2023/05/09 06:00:53;;;;;;;2.60;1.52;;;17.40;54.90;;;;;;4902884;29;20639;-78
2023/05/09 06:03:20;;;;;;;2.90;1.48;;;17.70;53.80;;;;;;4914092;29;20143;-77
2023/05/09 06:05:52;;;;;;;4.03;1.65;;;18.00;53.50;;;;;;4913838;29;20115;-78
2023/05/09 06:08:20;;;;;;;2.50;1.35;;;18.30;52.00;;;;;;4931297;29;20051;-78
2023/05/09 06:10:55;;;;;;;5.07;1.67;;;18.40;51.00;;;;;;4931031;29;20098;-77
2023/05/09 06:13:22;;;;;;;5.35;1.58;;;18.50;50.70;;;;;;4915599;29;20047;-78
2023/05/09 06:15:57;;;;;;;9.45;1.77;;;18.70;50.30;;;;;;4931334;29;20051;-78
2023/05/09 06:18:27;;;;;;;5.60;1.73;;;19.00;49.90;;;;;;4934250;29;20417;-79
2023/05/09 06:20:54;;;;;;;4.88;1.60;;;19.30;48.70;;;;;;4930156;29;20055;-79
2023/05/09 06:23:21;;;;;;;4.05;2.00;;;19.70;48.70;;;;;;4932326;29;20074;-79
2023/05/09 06:25:51;;;;;;;2.30;1.60;;;19.90;47.90;;;;;;4931705;29;20490;-77
2023/05/09 06:28:19;;;;;;;2.05;1.52;;;19.90;47.40;;;;;;4917889;29;20066;-75
2023/05/09 06:30:46;;;;;;;2.28;1.55;;;20.00;46.80;;;;;;4925885;29;20545;-74
2023/05/09 06:33:15;;;;;;;3.33;1.38;;;20.20;46.40;;;;;;4925890;29;20047;-78
2023/05/09 06:35:42;;;;;;;2.33;1.42;;;20.40;45.90;;;;;;4913306;29;20175;-79
2023/05/09 06:38:10;;;;;;;5.97;1.67;;;20.70;45.30;;;;;;4925263;29;20107;-78
2023/05/09 06:40:38;;;;;;;5.70;1.50;;;20.80;45.40;;;;;;4918671;29;20071;-79
2023/05/09 06:43:06;;;;;;;4.10;1.73;;;21.00;44.50;;;;;;4911509;29;20055;-72
2023/05/09 06:45:34;;;;;;;5.22;1.38;;;21.10;43.90;;;;;;4915608;29;20055;-79
2023/05/09 06:48:09;;;;;;;5.85;1.73;;;20.90;44.10;;;;;;4925427;29;20052;-79
2023/05/09 06:50:39;;;;;;;3.35;1.48;;;20.90;44.10;;;;;;4925204;29;20126;-79
2023/05/09 06:53:06;;;;;;;3.33;1.80;;;21.10;44.00;;;;;;4935677;29;20063;-81
2023/05/09 06:55:34;;;;;;;3.25;1.20;;;21.40;43.80;;;;;;4935370;29;20505;-77
2023/05/09 06:58:01;;;;;;;3.08;1.55;;;22.10;43.20;;;;;;4917711;29;20041;-76
2023/05/09 07:00:28;;;;;;;5.80;2.15;;;22.30;42.30;;;;;;4927632;29;20113;-76
2023/05/09 07:02:55;;;;;;;18.75;3.05;;;22.50;42.00;;;;;;4913767;29;20091;-76
2023/05/09 07:05:23;;;;;;;2.78;1.88;;;22.50;41.70;;;;;;4902414;29;20134;-76
2023/05/09 07:07:53;;;;;;;2.88;1.45;;;22.60;41.80;;;;;;4934344;29;20059;-76
2023/05/09 07:10:22;;;;;;;6.20;1.63;;;22.70;41.00;;;;;;4934549;29;20056;-76
2023/05/09 07:12:49;;;;;;;3.70;1.60;;;23.20;41.10;;;;;;4934617;29;20118;-76
2023/05/09 07:15:17;;;;;;;2.60;1.70;;;23.40;40.30;;;;;;4923221;29;20068;-76
2023/05/09 07:17:44;;;;;;;3.03;1.17;;;23.60;39.90;;;;;;4925488;29;20098;-77
2023/05/09 07:20:13;;;;;;;6.70;1.88;;;23.60;39.50;;;;;;4933502;29;20079;-76
2023/05/09 07:22:40;;;;;;;6.93;1.83;;;23.60;38.80;;;;;;4933403;29;20378;-72
2023/05/09 07:25:14;;;;;;;3.53;1.30;;;23.50;38.70;;;;;;4898259;29;20055;-72
2023/05/09 07:27:42;;;;;;;2.17;1.70;;;23.50;38.70;;;;;;4927093;29;20103;-74
2023/05/09 07:30:14;;;;;;;5.85;3.78;;;23.80;39.80;;;;;;4913683;29;20296;-79
2023/05/09 07:32:45;;;;;;;1.65;1.27;;;24.00;38.80;;;;;;4909310;29;20049;-74
2023/05/09 07:35:13;;;;;;;4.25;1.70;;;24.10;38.30;;;;;;4933415;29;20057;-74
2023/05/09 07:37:48;;;;;;;2.85;1.33;;;24.40;37.80;;;;;;4914939;29;20047;-74
2023/05/09 07:40:35;;;;;;;4.03;1.65;;;24.90;38.30;;;;;;4918009;29;20405;-77
2023/05/09 07:43:06;;;;;;;2.40;1.90;;;24.90;38.30;;;;;;4913539;29;20056;-79
2023/05/09 07:45:35;;;;;;;3.58;1.13;;;24.90;37.00;;;;;;4912362;29;20055;-73
2023/05/09 07:48:06;;;;;;;3.53;2.10;;;24.90;37.30;;;;;;4933038;29;20046;-72
2023/05/09 07:50:34;;;;;;;3.00;1.27;;;24.80;37.20;;;;;;4933675;29;20051;-72
2023/05/09 07:53:12;;;;;;;1.33;1.23;;;24.80;36.80;;;;;;4925873;29;20041;-74
2023/05/09 07:55:46;;;;;;;4.18;1.40;;;24.60;37.70;;;;;;4920124;29;20063;-76
2023/05/09 07:58:14;;;;;;;6.68;1.40;;;24.60;37.30;;;;;;4912171;29;20055;-75
2023/05/09 08:00:42;;;;;;;2.03;1.20;;;24.80;37.50;;;;;;4912732;29;20137;-76
2023/05/09 08:03:09;;;;;;;2.70;1.35;;;25.00;37.40;;;;;;4929209;29;20059;-79
2023/05/09 08:05:37;;;;;;;6.97;2.90;;;25.30;36.70;;;;;;4930879;29;20059;-72
2023/05/09 08:08:04;;;;;;;2.72;1.60;;;25.50;37.10;;;;;;4925187;29;20066;-77
2023/05/09 08:10:32;;;;;;;4.78;1.55;;;25.80;38.00;;;;;;4910129;29;20054;-77
2023/05/09 08:13:01;;;;;;;8.13;2.20;;;26.00;36.70;;;;;;4930742;29;20058;-76
2023/05/09 08:15:30;;;;;;;6.40;1.60;;;26.20;36.20;;;;;;4929806;29;20429;-77
2023/05/09 08:17:57;;;;;;;8.75;1.85;;;26.50;36.70;;;;;;4922867;29;20052;-77
2023/05/09 08:20:24;;;;;;;6.10;1.85;;;26.60;36.10;;;;;;4929447;29;20052;-72
2023/05/09 08:22:53;;;;;;;5.15;1.92;;;27.00;36.80;;;;;;4910327;29;20808;-71
2023/05/09 08:25:20;;;;;;;3.85;1.60;;;27.20;36.30;;;;;;4928483;29;20048;-72
2023/05/09 08:27:48;;;;;;;2.13;1.52;;;27.50;35.30;;;;;;4920194;29;20052;-72
2023/05/09 08:30:17;;;;;;;3.78;1.40;;;27.60;35.10;;;;;;4916155;29;20051;-73
2023/05/09 08:32:45;;;;;;;6.78;1.58;;;27.80;35.70;;;;;;4912668;29;20126;-73
2023/05/09 08:35:12;;;;;;;2.92;1.30;;;27.90;35.60;;;;;;4927610;29;20052;-71
2023/05/09 08:37:43;;;;;;;5.78;1.58;;;28.10;34.90;;;;;;4924015;29;20044;-71
2023/05/09 08:40:11;;;;;;;4.45;1.33;;;28.20;34.00;;;;;;4928450;29;20068;-72
2023/05/09 08:42:39;;;;;;;10.80;2.05;;;28.10;34.20;;;;;;4912243;29;20043;-73
2023/05/09 08:45:11;;;;;;;4.22;1.75;;;28.10;33.90;;;;;;4930343;29;20544;-72
2023/05/09 08:47:40;;;;;;;5.70;1.60;;;28.40;34.30;;;;;;4934307;29;20087;-70
2023/05/09 08:50:10;;;;;;;6.20;1.70;;;28.40;34.10;;;;;;4913690;29;20039;-71
2023/05/09 08:52:38;;;;;;;9.18;1.77;;;28.60;34.10;;;;;;4912108;29;20530;-72
2023/05/09 08:55:06;;;;;;;5.93;1.70;;;28.80;34.10;;;;;;4914577;29;20054;-72
2023/05/09 08:57:34;;;;;;;7.65;2.17;;;29.00;34.50;;;;;;4927280;29;20052;-73
2023/05/09 09:00:04;;;;;;;3.42;1.70;;;29.10;33.90;;;;;;4931406;29;20054;-74
2023/05/09 09:02:36;;;;;;;2.75;1.63;;;29.20;33.40;;;;;;4926606;29;20433;-74
2023/05/09 09:05:09;;;;;;;6.07;1.75;;;28.90;34.30;;;;;;4917604;29;20055;-74
2023/05/09 09:07:39;;;;;;;5.47;1.88;;;29.10;34.40;;;;;;4916042;29;20055;-73
2023/05/09 09:10:10;;;;;;;3.70;1.70;;;29.20;33.60;;;;;;4932999;29;20056;-72
2023/05/09 09:12:38;;;;;;;4.53;1.70;;;29.40;33.40;;;;;;4909625;29;20154;-71
2023/05/09 09:15:07;;;;;;;5.95;2.15;;;29.50;34.40;;;;;;4927021;29;20421;-72
2023/05/09 09:17:40;;;;;;;3.95;1.73;;;29.60;32.90;;;;;;4912192;29;20052;-72
2023/05/09 09:20:12;;;;;;;10.77;1.75;;;29.60;33.50;;;;;;4929319;29;20055;-73
2023/05/09 09:22:43;;;;;;;6.13;1.80;;;29.60;33.40;;;;;;4914605;29;20056;-75
2023/05/09 09:25:10;;;;;;;5.32;1.50;;;30.00;34.20;;;;;;4927977;29;20051;-76
2023/05/09 09:27:38;;;;;;;3.10;1.40;;;29.90;33.40;;;;;;4912967;29;20611;-76
2023/05/09 09:30:09;;;;;;;4.30;1.42;;;30.00;33.80;;;;;;4926251;29;20103;-75
2023/05/09 09:32:37;;;;;;;4.40;1.37;;;29.70;32.60;;;;;;4925902;29;20044;-76
2023/05/09 09:35:06;;;;;;;3.70;1.48;;;29.80;34.80;;;;;;4924314;29;20299;-76
2023/05/09 09:37:35;;;;;;;3.92;1.50;;;29.80;33.00;;;;;;4928394;29;20055;-76
2023/05/09 09:40:03;;;;;;;3.53;2.10;;;29.60;32.30;;;;;;4931795;29;20039;-76
2023/05/09 09:42:41;;;;;;;5.20;1.75;;;29.40;32.90;;;;;;4931802;29;20051;-76
2023/05/09 09:45:12;;;;;;;5.75;1.70;;;29.60;33.30;;;;;;4910003;29;20449;-76
2023/05/09 09:47:40;;;;;;;8.23;1.40;;;29.80;32.50;;;;;;4936205;29;20127;-76
2023/05/09 09:50:12;;;;;;;8.50;2.58;;;29.90;32.10;;;;;;4913998;29;20437;-76
2023/05/09 09:52:48;;;;;;;6.72;1.90;;;30.10;32.70;;;;;;4936058;29;20055;-75
2023/05/09 09:55:15;;;;;;;2.95;1.58;;;30.20;31.90;;;;;;4928155;29;20513;-76
2023/05/09 09:57:44;;;;;;;5.88;1.75;;;30.20;32.40;;;;;;4926565;29;20071;-76
2023/05/09 10:00:16;;;;;;;5.45;2.08;;;30.20;32.60;;;;;;4920827;29;20055;-76
2023/05/09 10:02:48;;;;;;;14.30;2.00;;;30.10;32.40;;;;;;4919456;29;20111;-76
2023/05/09 10:05:22;;;;;;;2.65;1.85;;;30.40;33.40;;;;;;4916238;29;20099;-77
2023/05/09 10:07:57;;;;;;;5.07;2.05;;;30.50;32.60;;;;;;4917013;29;20048;-76
2023/05/09 10:10:27;;;;;;;2.28;1.70;;;30.50;32.20;;;;;;4934448;29;20513;-77
2023/05/09 10:12:57;;;;;;;5.45;1.65;;;30.50;32.10;;;;;;4925188;29;20051;-76
2023/05/09 10:15:25;;;;;;;4.65;1.40;;;30.60;32.40;;;;;;4926875;29;20052;-76
2023/05/09 10:17:56;;;;;;;5.80;1.85;;;30.70;33.70;;;;;;4915227;29;20135;-76
2023/05/09 10:20:23;;;;;;;5.05;1.85;;;30.50;31.40;;;;;;4935013;29;20095;-75
2023/05/09 10:22:57;;;;;;;4.43;2.28;;;29.90;32.40;;;;;;4916830;29;20040;-75
2023/05/09 10:25:32;;;;;;;7.05;2.40;;;29.70;33.70;;;;;;4930499;29;20147;-75
2023/05/09 10:28:02;;;;;;;3.10;1.70;;;30.00;33.80;;;;;;4920509;29;20501;-75
2023/05/09 10:30:36;;;;;;;6.75;2.13;;;30.20;32.70;;;;;;4933915;29;20079;-75
2023/05/09 10:33:06;;;;;;;5.40;2.00;;;30.30;33.10;;;;;;4920984;29;20058;-76
2023/05/09 10:35:40;;;;;;;7.85;1.80;;;30.40;33.20;;;;;;4932355;29;20096;-75
2023/05/09 10:38:11;;;;;;;4.72;2.30;;;30.80;32.50;;;;;;4925276;29;20074;-74
2023/05/09 10:40:40;;;;;;;5.55;3.08;;;31.10;32.60;;;;;;4927905;29;20120;-75
2023/05/09 10:43:08;;;;;;;5.10;2.95;;;31.20;32.30;;;;;;4908003;29;20047;-75
2023/05/09 10:45:35;;;;;;;2.92;2.20;;;31.20;31.40;;;;;;4925123;29;20051;-71
2023/05/09 10:48:07;;;;;;;5.55;2.10;;;31.20;32.50;;;;;;4923123;29;20103;-72
2023/05/09 10:50:35;;;;;;;7.65;2.83;;;31.20;31.40;;;;;;4927493;29;20844;-72
2023/05/09 10:53:12;;;;;;;7.28;3.05;;;30.90;31.80;;;;;;4921825;29;20051;-72
2023/05/09 10:55:50;;;;;;;4.28;2.17;;;30.80;32.40;;;;;;4920922;29;20073;-72
2023/05/09 10:58:22;;;;;;;5.47;1.83;;;30.80;32.40;;;;;;4927736;29;20056;-72
2023/05/09 11:00:50;;;;;;;6.95;1.95;;;30.90;32.20;;;;;;4918507;29;20098;-73
2023/05/09 11:03:18;;;;;;;4.95;1.90;;;31.20;31.80;;;;;;4939526;29;20047;-72
2023/05/09 11:05:47;;;;;;;3.75;2.10;;;31.50;31.90;;;;;;4936281;29;20103;-72
2023/05/09 11:08:27;;;;;;;3.95;1.85;;;31.90;31.90;;;;;;4937432;29;20039;-72
2023/05/09 11:10:56;;;;;;;5.55;1.73;;;32.10;30.70;;;;;;4925464;29;20066;-73
2023/05/09 11:13:26;;;;;;;2.97;2.00;;;32.40;31.10;;;;;;4923339;29;20055;-73
2023/05/09 11:16:09;;;;;;;5.10;2.03;;;32.60;31.10;;;;;;4916638;29;20134;-72
2023/05/09 11:18:51;;;;;;;6.35;1.95;;;32.80;31.20;;;;;;4917537;29;20047;-73
2023/05/09 11:21:20;;;;;;;5.60;2.30;;;32.90;30.30;;;;;;4922049;29;20055;-73
2023/05/09 11:23:50;;;;;;;3.65;1.88;;;33.00;30.70;;;;;;4922440;29;20044;-75
2023/05/09 11:26:45;;;;;;;6.38;2.08;;;33.10;30.00;;;;;;4928071;29;20561;-71
2023/05/09 11:29:17;;;;;;;4.15;1.70;;;33.20;30.70;;;;;;4916424;29;20505;-73
2023/05/09 11:32:05;;;;;;;3.40;2.10;;;33.00;30.70;;;;;;4926077;29;20051;-74
2023/05/09 11:34:33;;;;;;;6.40;1.90;;;33.10;31.80;;;;;;4923842;29;20079;-74
2023/05/09 11:37:10;;;;;;;3.35;1.95;;;32.90;30.90;;;;;;4923609;29;20417;-74
2023/05/09 11:39:58;;;;;;;6.85;2.25;;;32.70;31.50;;;;;;4926356;29;20319;-74
2023/05/09 11:42:32;;;;;;;5.88;1.90;;;32.60;31.70;;;;;;4922323;29;20044;-75
2023/05/09 11:44:59;;;;;;;8.02;2.45;;;32.70;32.90;;;;;;4908859;29;20058;-72
2023/05/09 11:47:28;;;;;;;7.38;2.00;;;32.70;31.80;;;;;;4924124;29;20043;-73
2023/05/09 11:49:55;;;;;;;4.75;2.00;;;32.60;31.50;;;;;;4921825;29;20135;-71
2023/05/09 11:52:22;;;;;;;5.03;2.00;;;32.20;31.80;;;;;;4925442;29;20103;-72
2023/05/09 11:54:52;;;;;;;5.40;1.70;;;32.10;32.50;;;;;;4923326;29;20112;-72
2023/05/09 11:57:21;;;;;;;4.30;1.90;;;32.10;32.30;;;;;;4920833;29;20060;-72
2023/05/09 11:59:51;;;;;;;6.18;2.38;;;31.90;32.00;;;;;;4924520;29;20054;-72
2023/05/09 12:02:18;;;;;;;4.03;1.77;;;32.00;32.20;;;;;;4924618;29;20122;-73
2023/05/09 12:04:45;;;;;;;4.25;1.92;;;32.00;31.70;;;;;;4921676;29;20060;-72
2023/05/09 12:07:13;;;;;;;5.85;2.10;;;31.90;32.00;;;;;;4928065;29;20082;-73
2023/05/09 12:09:42;;;;;;;5.10;2.03;;;31.90;32.40;;;;;;4907441;29;20056;-73
2023/05/09 12:12:11;;;;;;;6.05;1.92;;;31.90;32.10;;;;;;4912567;29;20083;-72
2023/05/09 12:14:40;;;;;;;5.63;1.80;;;31.90;31.70;;;;;;4915135;29;20039;-72
2023/05/09 12:17:08;;;;;;;7.50;2.00;;;31.80;31.00;;;;;;4924103;29;20549;-73
2023/05/09 12:19:38;;;;;;;10.25;1.98;;;31.10;31.70;;;;;;4921607;29;20119;-71
2023/05/09 12:22:05;;;;;;;5.80;1.88;;;30.80;31.80;;;;;;4889144;29;20449;-73
2023/05/09 12:24:36;;;;;;;7.03;1.80;;;30.80;31.50;;;;;;4921313;29;20054;-73
2023/05/09 12:27:06;;;;;;;2.33;1.95;;;30.90;31.30;;;;;;4927356;29;20051;-73
2023/05/09 12:29:34;;;;;;;5.88;1.95;;;30.90;31.60;;;;;;4923456;29;20055;-71
2023/05/09 12:32:02;;;;;;;6.53;1.90;;;30.80;31.40;;;;;;4928040;29;20445;-72
2023/05/09 12:34:30;;;;;;;4.82;2.28;;;30.60;31.50;;;;;;4930048;29;20131;-72
2023/05/09 12:36:58;;;;;;;8.65;2.33;;;30.40;32.00;;;;;;4921266;29;20161;-77
2023/05/09 12:39:27;;;;;;;5.82;2.10;;;30.10;31.00;;;;;;4925506;29;20059;-76
2023/05/09 12:41:55;;;;;;;8.30;1.73;;;29.70;32.10;;;;;;4927844;29;20063;-77
2023/05/09 12:44:26;;;;;;;6.72;2.05;;;29.40;31.60;;;;;;4913774;29;20405;-76
2023/05/09 12:46:56;;;;;;;4.72;1.95;;;29.10;32.10;;;;;;4906653;29;20162;-75
2023/05/09 12:49:25;;;;;;;6.60;1.98;;;29.50;31.60;;;;;;4925550;29;20453;-76
2023/05/09 12:51:54;;;;;;;3.53;1.98;;;29.90;32.00;;;;;;4918764;29;20477;-73
2023/05/09 12:54:22;;;;;;;3.90;1.50;;;30.50;31.10;;;;;;4918800;29;20391;-72
2023/05/09 12:56:52;;;;;;;8.02;1.90;;;31.00;31.10;;;;;;4926830;29;20150;-73
2023/05/09 12:59:23;;;;;;;4.30;1.90;;;31.20;30.60;;;;;;4921357;29;20059;-72
2023/05/09 13:01:56;;;;;;;4.50;1.80;;;31.30;31.20;;;;;;4926010;29;20047;-73